Time;durP1;ratioP1;P1;durP2;ratioP2;P2;SDS_P1;SDS_P2;PMS_P1;PMS_P2;Temp;Humidity;BMP_temperature;BMP_pressure;BME280_temperature;BME280_humidity;BME280_pressure;Samples;Min_cycle;Max_cycle;Signal;HPM_P1;HPM_P2
2022/03/19 00:00:53;;;;;;;4.35;3.05;;;15.70;61.20;;;;;;2036421;28;20166;-66
2022/03/19 00:01:51;;;;;;;6.33;3.50;;;15.70;61.20;;;;;;2035575;28;20186;-66
2022/03/19 00:02:50;;;;;;;4.20;2.63;;;15.70;61.20;;;;;;2035761;28;20186;-66
2022/03/19 00:03:49;;;;;;;6.18;2.92;;;15.60;61.10;;;;;;2036135;28;20233;-66
2022/03/19 00:04:48;;;;;;;5.20;2.73;;;15.70;61.20;;;;;;2036286;28;20174;-66
2022/03/19 00:05:47;;;;;;;5.17;3.07;;;15.60;61.10;;;;;;2036373;28;20174;-66
2022/03/19 00:06:46;;;;;;;6.22;3.03;;;15.70;61.10;;;;;;2036316;28;20760;-67
2022/03/19 00:07:45;;;;;;;7.13;2.80;;;15.60;61.10;;;;;;2036397;28;20541;-67
2022/03/19 00:08:43;;;;;;;8.83;2.93;;;15.60;61.00;;;;;;2036444;28;20190;-67
2022/03/19 00:09:42;;;;;;;5.50;2.53;;;15.60;61.10;;;;;;2036369;28;20307;-66
2022/03/19 00:10:41;;;;;;;5.53;2.70;;;15.60;61.80;;;;;;2036449;28;20194;-67
2022/03/19 00:11:41;;;;;;;5.30;2.33;;;15.60;61.10;;;;;;2036248;28;20538;-66
2022/03/19 00:12:40;;;;;;;5.10;3.22;;;15.60;61.10;;;;;;2036249;28;20205;-66
2022/03/19 00:13:40;;;;;;;7.75;3.55;;;15.60;61.10;;;;;;2036290;28;20171;-66
2022/03/19 00:14:42;;;;;;;6.38;3.40;;;15.60;61.10;;;;;;2036421;28;20167;-67
2022/03/19 00:15:41;;;;;;;5.72;2.75;;;15.60;61.10;;;;;;2036447;28;20170;-65
2022/03/19 00:16:39;;;;;;;8.93;3.20;;;15.60;61.10;;;;;;2036154;28;20170;-66
2022/03/19 00:17:38;;;;;;;6.33;3.63;;;15.60;61.10;;;;;;2036266;28;20246;-66
2022/03/19 00:18:37;;;;;;;11.10;2.70;;;15.60;61.20;;;;;;2036190;28;20177;-67
2022/03/19 00:19:36;;;;;;;5.10;3.15;;;15.60;61.20;;;;;;2036038;28;20239;-66
2022/03/19 00:20:37;;;;;;;5.32;2.80;;;15.60;61.20;;;;;;2036332;28;20548;-66
2022/03/19 00:21:37;;;;;;;6.03;2.92;;;15.60;61.20;;;;;;2037720;28;20265;-66
2022/03/19 00:22:38;;;;;;;5.00;2.50;;;15.60;61.10;;;;;;2037912;28;20175;-66
2022/03/19 00:23:37;;;;;;;4.13;2.90;;;15.60;61.20;;;;;;2037837;28;20206;-66
2022/03/19 00:24:37;;;;;;;10.33;3.50;;;15.60;61.20;;;;;;2037761;28;20224;-66
2022/03/19 00:25:35;;;;;;;6.20;3.20;;;15.60;61.10;;;;;;2037770;28;20174;-66
2022/03/19 00:26:35;;;;;;;5.30;2.50;;;15.60;61.20;;;;;;2037807;28;20178;-66
2022/03/19 00:27:34;;;;;;;4.38;3.15;;;15.60;61.20;;;;;;2037856;28;20226;-67
2022/03/19 00:28:32;;;;;;;5.13;3.10;;;15.60;61.90;;;;;;2037685;28;20589;-66
2022/03/19 00:29:31;;;;;;;8.33;3.50;;;15.60;61.20;;;;;;2037784;28;20233;-67
2022/03/19 00:30:29;;;;;;;7.30;3.10;;;15.60;61.20;;;;;;2037734;28;20272;-65
2022/03/19 00:31:28;;;;;;;8.93;3.47;;;15.60;61.20;;;;;;2037926;28;20176;-66
2022/03/19 00:32:27;;;;;;;5.87;2.60;;;15.60;61.20;;;;;;2037786;28;20483;-67
2022/03/19 00:33:26;;;;;;;6.50;3.20;;;15.60;61.30;;;;;;2037742;28;20184;-66
2022/03/19 00:34:25;;;;;;;3.00;2.50;;;15.50;61.10;;;;;;2037783;28;20665;-67
2022/03/19 00:35:23;;;;;;;6.40;3.28;;;15.50;61.10;;;;;;2037828;28;20188;-67
2022/03/19 00:36:22;;;;;;;8.80;3.33;;;15.60;61.30;;;;;;2037848;28;20185;-67
2022/03/19 00:37:20;;;;;;;5.03;3.23;;;15.60;61.20;;;;;;2037244;28;20247;-66
2022/03/19 00:38:19;;;;;;;6.40;2.90;;;15.60;61.30;;;;;;2037187;28;20193;-67
2022/03/19 00:39:17;;;;;;;4.77;2.97;;;15.50;61.20;;;;;;2037710;28;20174;-67
2022/03/19 00:40:18;;;;;;;4.37;2.90;;;15.50;61.30;;;;;;2037581;28;20576;-66
2022/03/19 00:41:16;;;;;;;9.07;3.40;;;15.50;61.20;;;;;;2037795;28;20597;-67
2022/03/19 00:42:15;;;;;;;3.57;2.60;;;15.60;61.30;;;;;;2037719;28;20255;-67
2022/03/19 00:43:14;;;;;;;5.43;2.90;;;15.50;61.30;;;;;;2037722;28;20197;-67
2022/03/19 00:44:12;;;;;;;6.03;2.57;;;15.60;61.40;;;;;;2037679;28;20182;-66
2022/03/19 00:45:11;;;;;;;6.43;3.20;;;15.60;61.30;;;;;;2037638;28;20184;-68
2022/03/19 00:46:10;;;;;;;8.33;3.67;;;15.50;61.20;;;;;;2037704;28;20224;-67
2022/03/19 00:47:08;;;;;;;4.90;2.60;;;15.50;61.30;;;;;;2037610;28;20412;-66
2022/03/19 00:48:09;;;;;;;3.00;2.30;;;15.50;61.30;;;;;;2037858;28;20206;-65
2022/03/19 00:49:08;;;;;;;9.40;3.40;;;15.50;61.30;;;;;;2037644;28;20304;-66
2022/03/19 00:50:08;;;;;;;4.57;2.80;;;15.60;61.40;;;;;;2037763;28;20182;-67
2022/03/19 00:51:06;;;;;;;6.60;2.60;;;15.60;61.40;;;;;;2037472;28;20175;-68
2022/03/19 00:52:05;;;;;;;3.80;2.67;;;15.60;61.40;;;;;;2037516;28;20218;-68
2022/03/19 00:53:04;;;;;;;3.50;2.58;;;15.60;61.30;;;;;;2037901;28;20269;-67
2022/03/19 00:54:03;;;;;;;6.23;3.23;;;15.60;61.30;;;;;;2037672;28;20548;-66
2022/03/19 00:55:03;;;;;;;5.63;2.50;;;15.60;61.30;;;;;;2037717;28;20170;-67
2022/03/19 00:56:02;;;;;;;5.38;2.63;;;15.50;61.20;;;;;;2037623;28;20428;-67
2022/03/19 00:57:01;;;;;;;6.80;3.30;;;15.60;61.30;;;;;;2037970;28;20209;-66
2022/03/19 00:57:59;;;;;;;6.53;3.00;;;15.60;61.40;;;;;;2036957;28;20182;-66
2022/03/19 00:58:58;;;;;;;3.20;2.33;;;15.50;61.20;;;;;;2037133;28;20211;-67
2022/03/19 00:59:57;;;;;;;8.67;3.63;;;15.50;61.20;;;;;;2037515;28;20387;-67
2022/03/19 01:00:56;;;;;;;5.35;3.00;;;15.50;61.30;;;;;;2037628;28;20170;-66
2022/03/19 01:01:56;;;;;;;5.50;2.60;;;15.50;61.20;;;;;;2037566;28;20183;-66
2022/03/19 01:02:56;;;;;;;6.07;2.30;;;15.50;61.30;;;;;;2037522;28;20163;-67
2022/03/19 01:03:54;;;;;;;5.10;2.95;;;15.50;61.30;;;;;;2037484;28;20634;-67
2022/03/19 01:04:53;;;;;;;5.30;3.03;;;15.50;61.40;;;;;;2037623;28;20167;-67
2022/03/19 01:05:52;;;;;;;7.00;3.20;;;15.50;61.30;;;;;;2037634;28;20275;-67
2022/03/19 01:06:50;;;;;;;5.90;3.27;;;15.50;61.30;;;;;;2037417;28;20162;-66
2022/03/19 01:07:55;;;;;;;11.67;3.50;;;15.50;61.30;;;;;;2037631;28;20215;-66
2022/03/19 01:08:53;;;;;;;5.35;3.50;;;15.50;61.30;;;;;;2037602;28;20230;-68
2022/03/19 01:09:52;;;;;;;6.00;3.10;;;15.50;61.40;;;;;;2037511;28;20593;-66
2022/03/19 01:10:51;;;;;;;7.13;2.80;;;15.50;61.40;;;;;;2037388;28;20182;-67
2022/03/19 01:11:50;;;;;;;5.15;2.40;;;15.50;61.30;;;;;;2037588;28;20243;-66
2022/03/19 01:12:52;;;;;;;6.00;2.55;;;15.50;61.30;;;;;;2037546;28;20179;-66
2022/03/19 01:13:51;;;;;;;5.35;3.20;;;15.50;61.30;;;;;;2037623;28;20438;-66
2022/03/19 01:14:49;;;;;;;5.03;2.70;;;15.50;61.30;;;;;;2037457;28;20177;-68
2022/03/19 01:15:47;;;;;;;5.00;3.20;;;15.50;61.40;;;;;;2037505;28;20755;-67
2022/03/19 01:16:46;;;;;;;8.20;2.53;;;15.50;61.40;;;;;;2037432;28;20207;-67
2022/03/19 01:17:45;;;;;;;14.40;3.10;;;15.50;61.30;;;;;;2037534;28;20249;-67
2022/03/19 01:18:43;;;;;;;3.57;2.70;;;15.40;61.30;;;;;;2037410;28;20189;-66
2022/03/19 01:19:54;;;;;;;10.87;2.67;;;15.50;61.40;;;;;;2037222;28;20244;-67
2022/03/19 01:20:52;;;;;;;8.82;3.70;;;15.50;61.50;;;;;;2037415;28;20311;-67
2022/03/19 01:21:51;;;;;;;5.97;2.80;;;15.50;61.40;;;;;;2037325;28;20198;-67
2022/03/19 01:22:49;;;;;;;5.70;2.30;;;15.50;61.40;;;;;;2037366;28;20253;-66
2022/03/19 01:23:48;;;;;;;4.97;3.00;;;15.50;61.60;;;;;;2037474;28;20245;-66
2022/03/19 01:24:46;;;;;;;6.73;3.30;;;15.50;61.50;;;;;;2036708;28;20198;-67
2022/03/19 01:25:44;;;;;;;6.03;2.80;;;15.50;61.50;;;;;;2036794;28;20337;-67
2022/03/19 01:26:43;;;;;;;4.20;2.70;;;15.50;61.50;;;;;;2037265;28;20173;-67
2022/03/19 01:27:43;;;;;;;6.43;2.80;;;15.50;61.40;;;;;;2037287;28;20174;-67
2022/03/19 01:28:41;;;;;;;9.05;2.67;;;15.50;61.50;;;;;;2037394;28;20471;-67
2022/03/19 01:29:40;;;;;;;5.70;2.90;;;15.40;61.40;;;;;;2037252;28;20210;-67
2022/03/19 01:30:38;;;;;;;15.30;2.97;;;15.50;61.50;;;;;;2037438;28;20235;-67
2022/03/19 01:31:37;;;;;;;4.97;2.85;;;15.50;61.60;;;;;;2037104;28;20205;-66
2022/03/19 01:32:36;;;;;;;5.50;2.83;;;15.50;61.50;;;;;;2037300;28;20534;-66
2022/03/19 01:33:34;;;;;;;4.40;2.87;;;15.50;61.50;;;;;;2037235;28;20204;-66
2022/03/19 01:34:33;;;;;;;2.93;2.30;;;15.50;61.50;;;;;;2037416;28;20167;-68
2022/03/19 01:35:31;;;;;;;8.13;2.57;;;15.50;61.60;;;;;;2037313;28;20170;-66
2022/03/19 01:36:30;;;;;;;4.63;2.37;;;15.50;61.50;;;;;;2037249;28;20572;-66
2022/03/19 01:37:29;;;;;;;5.80;2.93;;;15.40;61.40;;;;;;2037436;28;20178;-66
2022/03/19 01:38:27;;;;;;;8.07;2.85;;;15.50;61.60;;;;;;2037205;28;20205;-66
2022/03/19 01:39:26;;;;;;;7.07;2.50;;;15.40;61.50;;;;;;2037173;28;20182;-66
2022/03/19 01:40:25;;;;;;;7.60;3.27;;;15.40;61.40;;;;;;2037243;28;20174;-68
2022/03/19 01:41:23;;;;;;;4.70;2.57;;;15.40;61.40;;;;;;2037286;28;20178;-67
2022/03/19 01:42:28;;;;;;;4.33;2.00;;;15.40;61.50;;;;;;2037159;28;20285;-68
2022/03/19 01:43:27;;;;;;;5.95;2.95;;;15.40;61.40;;;;;;2037257;28;20174;-66
2022/03/19 01:44:26;;;;;;;6.00;2.70;;;15.40;61.50;;;;;;2037296;28;20282;-67
2022/03/19 01:45:24;;;;;;;6.90;2.77;;;15.40;61.50;;;;;;2037173;28;20215;-66
2022/03/19 01:46:23;;;;;;;2.97;2.30;;;15.40;61.50;;;;;;2037157;28;20199;-67
2022/03/19 01:47:23;;;;;;;5.00;3.03;;;15.40;61.50;;;;;;2037284;28;20413;-66
2022/03/19 01:48:25;;;;;;;3.75;2.75;;;15.60;61.70;;;;;;2037296;28;20262;-66
2022/03/19 01:49:24;;;;;;;3.20;2.50;;;15.50;61.60;;;;;;2036600;28;20217;-67
2022/03/19 01:50:25;;;;;;;4.40;3.00;;;15.40;61.40;;;;;;2036680;28;20534;-66
2022/03/19 01:51:23;;;;;;;3.78;2.70;;;15.40;61.50;;;;;;2037100;28;20466;-66
2022/03/19 01:52:22;;;;;;;4.67;2.30;;;15.40;61.40;;;;;;2037078;28;20271;-66
2022/03/19 01:53:21;;;;;;;4.60;2.87;;;15.40;61.50;;;;;;2037182;28;20186;-67
2022/03/19 01:54:29;;;;;;;4.53;2.40;;;15.40;61.50;;;;;;2037148;28;20413;-66
2022/03/19 01:55:28;;;;;;;2.75;2.50;;;15.40;61.50;;;;;;2037374;28;20193;-66
2022/03/19 01:56:27;;;;;;;7.97;3.08;;;15.40;61.50;;;;;;2037250;28;20579;-66
2022/03/19 01:57:28;;;;;;;3.40;2.70;;;15.40;61.60;;;;;;2037039;28;20183;-66
2022/03/19 01:58:27;;;;;;;4.93;2.20;;;15.40;61.50;;;;;;2037346;28;20556;-67
2022/03/19 01:59:31;;;;;;;5.93;2.63;;;15.40;61.50;;;;;;2037051;28;20171;-66
2022/03/19 02:00:30;;;;;;;5.70;2.70;;;15.40;61.40;;;;;;2037300;28;20231;-66
2022/03/19 02:01:28;;;;;;;4.13;2.10;;;15.40;61.60;;;;;;2037207;28;20244;-68
2022/03/19 02:02:27;;;;;;;6.43;2.63;;;15.40;61.50;;;;;;2036524;28;20178;-66
2022/03/19 02:03:28;;;;;;;3.97;2.67;;;15.40;62.20;;;;;;2036676;28;20241;-66
2022/03/19 02:04:28;;;;;;;6.38;2.70;;;15.40;61.60;;;;;;2037096;28;20255;-66
2022/03/19 02:05:26;;;;;;;6.90;2.67;;;15.40;61.50;;;;;;2037220;28;20591;-67
2022/03/19 02:06:26;;;;;;;3.13;2.30;;;15.40;61.60;;;;;;2037220;28;20190;-66
2022/03/19 02:07:25;;;;;;;5.47;2.70;;;15.40;61.60;;;;;;2037081;28;20622;-66
2022/03/19 02:08:23;;;;;;;2.40;1.90;;;15.40;61.60;;;;;;2037104;28;20236;-66
2022/03/19 02:09:25;;;;;;;5.33;2.80;;;15.40;61.60;;;;;;2037125;28;20279;-66
2022/03/19 02:10:24;;;;;;;4.88;2.63;;;15.40;61.60;;;;;;2037161;28;20174;-67
2022/03/19 02:11:24;;;;;;;5.00;2.53;;;15.40;61.60;;;;;;2037176;28;20684;-67
2022/03/19 02:12:22;;;;;;;5.60;3.25;;;15.40;61.70;;;;;;2037113;28;20200;-67
2022/03/19 02:13:21;;;;;;;4.03;2.63;;;15.30;61.60;;;;;;2036353;28;20189;-66
2022/03/19 02:14:19;;;;;;;4.30;2.47;;;15.40;61.70;;;;;;2036683;28;20561;-65
2022/03/19 02:15:18;;;;;;;5.10;3.00;;;15.40;61.70;;;;;;2037030;28;20171;-66
2022/03/19 02:16:17;;;;;;;6.63;3.37;;;15.40;61.60;;;;;;2036997;28;20261;-66
2022/03/19 02:17:15;;;;;;;2.40;1.80;;;15.40;61.60;;;;;;2037028;28;20448;-67
2022/03/19 02:18:14;;;;;;;3.30;2.03;;;15.40;61.60;;;;;;2037042;28;20577;-67
2022/03/19 02:19:13;;;;;;;5.83;2.83;;;15.40;61.60;;;;;;2037039;28;20614;-67
2022/03/19 02:20:12;;;;;;;4.85;2.58;;;15.40;61.60;;;;;;2037047;28;20561;-66
2022/03/19 02:21:11;;;;;;;4.37;2.43;;;15.40;61.60;;;;;;2037072;28;20182;-67
2022/03/19 02:22:09;;;;;;;2.93;2.20;;;15.40;61.70;;;;;;2037107;28;20194;-67
2022/03/19 02:25:55;;;;;;;4.22;2.92;;;15.30;61.70;;;;;;2037124;28;20186;-67
2022/03/19 02:26:53;;;;;;;3.80;2.20;;;15.30;61.70;;;;;;2036987;28;20533;-67
2022/03/19 02:27:52;;;;;;;3.33;2.17;;;15.30;61.70;;;;;;2036932;28;20174;-67
2022/03/19 02:28:51;;;;;;;2.97;2.30;;;15.40;61.80;;;;;;2036884;28;20196;-67
2022/03/19 02:29:49;;;;;;;4.47;2.53;;;15.40;61.70;;;;;;2036933;28;20570;-67
2022/03/19 02:30:48;;;;;;;6.67;2.30;;;15.40;61.70;;;;;;2037001;28;20181;-67
2022/03/19 02:31:49;;;;;;;4.50;2.57;;;15.40;61.70;;;;;;2036927;28;20196;-67
2022/03/19 02:32:49;;;;;;;3.53;2.35;;;15.40;61.70;;;;;;2036928;28;20250;-66
2022/03/19 02:33:48;;;;;;;7.45;2.75;;;15.40;61.70;;;;;;2037086;28;20635;-67
2022/03/19 02:34:47;;;;;;;3.42;2.47;;;15.30;61.70;;;;;;2036917;28;20167;-67
2022/03/19 02:35:47;;;;;;;3.63;2.50;;;15.30;61.70;;;;;;2036999;28;20174;-67
2022/03/19 02:36:46;;;;;;;6.10;2.70;;;15.40;61.80;;;;;;2036863;28;20508;-66
2022/03/19 02:37:47;;;;;;;8.67;2.87;;;15.40;61.80;;;;;;2036973;28;20212;-67
2022/03/19 02:38:48;;;;;;;5.47;3.28;;;15.40;61.70;;;;;;2036233;28;20752;-67
2022/03/19 02:39:47;;;;;;;6.20;2.35;;;15.40;61.60;;;;;;2036286;28;20166;-66
2022/03/19 02:40:46;;;;;;;5.00;2.40;;;15.30;61.60;;;;;;2036856;28;20166;-66
2022/03/19 02:41:49;;;;;;;5.00;2.83;;;15.30;61.60;;;;;;2036767;28;20216;-67
2022/03/19 02:42:53;;;;;;;7.90;4.38;;;15.40;61.70;;;;;;2036982;28;20220;-67
2022/03/19 02:43:52;;;;;;;4.63;2.70;;;15.40;61.70;;;;;;2036255;28;20158;-66
2022/03/19 02:44:51;;;;;;;3.30;2.10;;;15.40;61.70;;;;;;2036895;28;20174;-67
2022/03/19 02:45:49;;;;;;;5.03;3.13;;;15.30;61.70;;;;;;2036886;28;20186;-67
2022/03/19 02:46:50;;;;;;;4.03;2.50;;;15.30;61.70;;;;;;2036789;28;20177;-67
2022/03/19 02:47:59;;;;;;;3.08;2.63;;;15.30;61.70;;;;;;2036716;28;20166;-67
2022/03/19 02:48:57;;;;;;;4.55;2.30;;;15.40;61.80;;;;;;2036902;28;20177;-66
2022/03/19 02:49:56;;;;;;;3.37;2.23;;;15.40;61.80;;;;;;2036778;28;20167;-67
2022/03/19 02:50:55;;;;;;;8.37;2.60;;;15.30;61.70;;;;;;2036705;28;20171;-67
2022/03/19 02:51:54;;;;;;;4.97;2.63;;;15.40;61.80;;;;;;2036618;28;20186;-67
2022/03/19 02:52:53;;;;;;;4.15;2.55;;;15.30;61.70;;;;;;2036821;28;20181;-67
2022/03/19 02:53:52;;;;;;;3.37;2.53;;;15.30;61.70;;;;;;2036914;28;20177;-67
2022/03/19 02:54:50;;;;;;;3.83;2.30;;;15.30;61.80;;;;;;2036721;28;20487;-67
2022/03/19 02:55:49;;;;;;;5.20;2.37;;;15.30;61.80;;;;;;2036957;28;20220;-67
2022/03/19 02:56:48;;;;;;;3.00;1.93;;;15.30;61.90;;;;;;2036901;28;20162;-67
2022/03/19 02:57:47;;;;;;;7.45;2.80;;;15.30;61.90;;;;;;2036743;28;20285;-66
2022/03/19 02:58:45;;;;;;;2.87;1.97;;;15.30;61.80;;;;;;2036718;28;20175;-67
2022/03/19 02:59:44;;;;;;;3.83;2.40;;;15.30;61.80;;;;;;2036658;28;20271;-67
2022/03/19 03:00:42;;;;;;;5.83;2.27;;;15.30;61.80;;;;;;2036741;28;20227;-67
2022/03/19 03:01:41;;;;;;;8.73;3.30;;;15.30;61.90;;;;;;2036650;28;20725;-67
2022/03/19 03:02:39;;;;;;;3.30;2.60;;;15.30;61.80;;;;;;2036700;28;20177;-67
2022/03/19 03:03:38;;;;;;;4.53;2.37;;;15.30;61.80;;;;;;2036781;28;20250;-66
2022/03/19 03:04:36;;;;;;;5.07;3.30;;;15.30;61.80;;;;;;2036643;28;20217;-66
2022/03/19 03:05:35;;;;;;;4.87;2.20;;;15.40;61.90;;;;;;2036765;28;20185;-66
2022/03/19 03:06:35;;;;;;;5.27;2.80;;;15.40;62.00;;;;;;2036735;28;20191;-66
2022/03/19 03:07:34;;;;;;;5.45;2.50;;;15.30;61.80;;;;;;2036850;28;20224;-67
2022/03/19 03:08:32;;;;;;;4.63;2.47;;;15.30;61.80;;;;;;2036839;28;20228;-67
2022/03/19 03:09:33;;;;;;;7.20;2.70;;;15.30;61.80;;;;;;2036555;28;20198;-67
2022/03/19 03:10:32;;;;;;;5.28;2.78;;;15.30;61.80;;;;;;2036778;28;20693;-66
2022/03/19 03:11:32;;;;;;;4.00;2.25;;;15.30;61.80;;;;;;2036601;28;20177;-66
2022/03/19 03:12:32;;;;;;;6.28;3.08;;;15.30;61.80;;;;;;2036617;28;20679;-66
2022/03/19 03:13:31;;;;;;;5.15;2.50;;;15.30;61.80;;;;;;2036576;28;20218;-67
2022/03/19 03:14:29;;;;;;;6.13;2.50;;;15.30;61.80;;;;;;2036612;28;20166;-66
2022/03/19 03:15:28;;;;;;;5.00;2.27;;;15.30;61.80;;;;;;2036694;28;20249;-66
2022/03/19 03:16:27;;;;;;;5.20;2.50;;;15.30;61.80;;;;;;2036600;28;20198;-66
2022/03/19 03:17:25;;;;;;;4.57;2.40;;;15.30;61.80;;;;;;2036505;28;20701;-66
2022/03/19 03:18:24;;;;;;;6.33;2.17;;;15.30;61.80;;;;;;2035982;28;20204;-65
2022/03/19 03:19:22;;;;;;;6.53;2.70;;;15.40;61.90;;;;;;2035803;28;20662;-68
2022/03/19 03:20:21;;;;;;;3.30;2.07;;;15.30;61.90;;;;;;2035443;28;20178;-66
2022/03/19 03:21:20;;;;;;;3.93;2.13;;;15.30;61.90;;;;;;2027790;28;20269;-67
2022/03/19 03:22:18;;;;;;;9.33;2.70;;;15.30;61.90;;;;;;2035397;28;20202;-67
2022/03/19 03:23:17;;;;;;;4.70;2.83;;;15.30;62.00;;;;;;2036635;28;20167;-68
2022/03/19 03:24:15;;;;;;;3.13;1.83;;;15.30;61.90;;;;;;2036517;28;20540;-67
2022/03/19 03:25:14;;;;;;;5.73;2.50;;;15.30;61.90;;;;;;2036579;28;20188;-68
2022/03/19 03:26:13;;;;;;;3.77;2.10;;;15.30;62.00;;;;;;2036616;28;20182;-67
2022/03/19 03:27:11;;;;;;;6.40;2.90;;;15.30;61.90;;;;;;2036555;28;20557;-68
2022/03/19 03:28:10;;;;;;;4.83;2.43;;;15.30;62.00;;;;;;2036577;28;20174;-68
2022/03/19 03:29:08;;;;;;;4.73;2.10;;;15.30;62.10;;;;;;2036389;28;20621;-68
2022/03/19 03:30:08;;;;;;;5.20;2.40;;;15.20;61.90;;;;;;2036556;28;20202;-68
2022/03/19 03:31:07;;;;;;;4.70;2.70;;;15.30;62.00;;;;;;2036442;28;20239;-68
2022/03/19 03:32:06;;;;;;;5.80;2.10;;;15.30;62.00;;;;;;2036473;28;20194;-67
2022/03/19 03:33:04;;;;;;;5.70;2.10;;;15.30;62.00;;;;;;2036462;28;20473;-67
2022/03/19 03:34:03;;;;;;;7.73;2.77;;;15.20;61.90;;;;;;2036506;28;20562;-67
2022/03/19 03:35:02;;;;;;;5.38;2.30;;;15.30;62.00;;;;;;2036541;28;20171;-68
2022/03/19 03:36:02;;;;;;;7.70;2.50;;;15.30;62.10;;;;;;2036589;28;20174;-67
2022/03/19 03:37:00;;;;;;;3.35;2.05;;;15.30;62.00;;;;;;2036455;28;20404;-67
2022/03/19 03:37:59;;;;;;;8.53;2.17;;;15.20;62.10;;;;;;2036717;28;20526;-67
2022/03/19 03:38:58;;;;;;;5.68;2.38;;;15.20;62.10;;;;;;2036509;28;20174;-67
2022/03/19 03:39:57;;;;;;;4.30;2.07;;;15.20;62.00;;;;;;2036432;28;20166;-67
2022/03/19 03:40:56;;;;;;;5.07;2.40;;;15.20;62.00;;;;;;2036547;28;20528;-66
2022/03/19 03:41:54;;;;;;;2.73;2.20;;;15.30;62.10;;;;;;2036429;28;20209;-67
2022/03/19 03:42:54;;;;;;;8.03;2.90;;;15.20;61.90;;;;;;2036490;28;20400;-66
2022/03/19 03:43:53;;;;;;;4.70;2.30;;;15.20;62.10;;;;;;2036479;28;20162;-67
2022/03/19 03:44:57;;;;;;;10.33;2.23;;;15.20;62.10;;;;;;2036396;28;20194;-66
2022/03/19 03:45:56;;;;;;;5.38;2.50;;;15.20;62.10;;;;;;2036580;28;20234;-66
2022/03/19 03:46:54;;;;;;;5.40;2.40;;;15.30;62.20;;;;;;2036440;28;20163;-67
2022/03/19 03:47:53;;;;;;;3.90;2.10;;;15.20;62.10;;;;;;2036392;28;20679;-67
2022/03/19 03:48:52;;;;;;;6.27;2.57;;;15.20;62.10;;;;;;2036355;28;20219;-67
2022/03/19 03:49:52;;;;;;;2.90;1.87;;;15.20;62.10;;;;;;2036560;28;20190;-67
2022/03/19 03:50:56;;;;;;;5.45;2.67;;;15.20;62.10;;;;;;2036444;28;20209;-67
2022/03/19 03:51:56;;;;;;;3.83;2.47;;;15.20;62.20;;;;;;2036401;28;20250;-67
2022/03/19 03:52:56;;;;;;;3.67;2.20;;;15.20;62.10;;;;;;2036479;28;20170;-65
2022/03/19 03:53:55;;;;;;;10.85;3.13;;;15.20;62.20;;;;;;2036461;28;20167;-66
2022/03/19 03:54:53;;;;;;;4.20;2.03;;;15.10;62.10;;;;;;2036291;28;20171;-68
2022/03/19 03:55:52;;;;;;;5.87;2.03;;;15.20;62.30;;;;;;2036436;28;20198;-65
2022/03/19 03:56:51;;;;;;;3.05;2.20;;;15.20;62.30;;;;;;2036532;28;20234;-66
2022/03/19 03:57:50;;;;;;;6.70;2.00;;;15.20;62.30;;;;;;2036483;28;20175;-66
2022/03/19 03:58:49;;;;;;;3.90;2.07;;;15.20;62.30;;;;;;2036341;28;20642;-66
2022/03/19 03:59:50;;;;;;;3.40;2.10;;;15.10;62.20;;;;;;2036407;28;20699;-66
2022/03/19 04:00:52;;;;;;;8.07;2.20;;;15.20;62.30;;;;;;2036309;28;20191;-66
2022/03/19 04:01:50;;;;;;;5.28;2.25;;;15.20;62.40;;;;;;2035724;28;20557;-66
2022/03/19 04:02:50;;;;;;;5.03;2.47;;;15.20;62.30;;;;;;2035797;28;20253;-67
2022/03/19 04:03:48;;;;;;;3.60;2.45;;;15.20;62.30;;;;;;2036320;28;20205;-67
2022/03/19 04:04:47;;;;;;;3.73;1.90;;;15.20;62.30;;;;;;2036154;28;20184;-67
2022/03/19 04:05:46;;;;;;;4.57;2.20;;;15.20;62.20;;;;;;2036442;28;20170;-67
2022/03/19 04:06:44;;;;;;;3.43;2.23;;;15.20;62.30;;;;;;2036231;28;20254;-67
2022/03/19 04:07:43;;;;;;;4.40;2.40;;;15.20;62.30;;;;;;2036288;28;20178;-66
2022/03/19 04:08:42;;;;;;;4.90;2.50;;;15.10;62.30;;;;;;2036321;28;20580;-66
2022/03/19 04:09:40;;;;;;;4.75;2.20;;;15.20;62.40;;;;;;2036326;28;20562;-68
2022/03/19 04:10:39;;;;;;;6.10;2.77;;;15.20;62.30;;;;;;2036320;28;20167;-67
2022/03/19 04:11:38;;;;;;;5.60;2.53;;;15.20;62.40;;;;;;2036378;28;20658;-66
2022/03/19 04:12:37;;;;;;;3.67;1.87;;;15.20;62.40;;;;;;2036265;28;20466;-66
2022/03/19 04:13:35;;;;;;;3.87;2.90;;;15.20;62.30;;;;;;2036324;28;20166;-66
2022/03/19 04:14:34;;;;;;;4.90;2.87;;;15.20;62.30;;;;;;2036212;28;20947;-66
2022/03/19 04:15:32;;;;;;;3.40;2.30;;;15.10;62.20;;;;;;2036415;28;20177;-66
2022/03/19 04:16:31;;;;;;;3.73;2.57;;;15.20;62.40;;;;;;2036296;28;20175;-66
2022/03/19 04:17:30;;;;;;;4.55;2.75;;;15.20;62.40;;;;;;2036369;28;20167;-67
2022/03/19 04:18:28;;;;;;;5.43;2.00;;;15.10;62.40;;;;;;2036286;28;20523;-67
2022/03/19 04:19:27;;;;;;;3.73;2.07;;;15.10;62.40;;;;;;2036238;28;20171;-65
2022/03/19 04:20:26;;;;;;;4.30;2.30;;;15.20;62.50;;;;;;2036314;28;20166;-68
2022/03/19 04:21:24;;;;;;;6.73;2.73;;;15.10;62.40;;;;;;2036444;28;20253;-67
2022/03/19 04:22:23;;;;;;;4.80;2.20;;;15.20;62.50;;;;;;2036288;28;20216;-66
2022/03/19 04:23:21;;;;;;;4.80;2.60;;;15.10;62.40;;;;;;2036216;28;20714;-67
2022/03/19 04:24:20;;;;;;;4.33;1.77;;;15.10;62.30;;;;;;2036410;28;20178;-67
2022/03/19 04:25:23;;;;;;;6.30;2.17;;;15.30;62.50;;;;;;2036258;28;20261;-66
2022/03/19 04:26:22;;;;;;;3.53;1.90;;;15.20;62.40;;;;;;2036394;28;20585;-66
2022/03/19 04:27:20;;;;;;;5.37;2.50;;;15.20;62.50;;;;;;2036263;28;20186;-66
2022/03/19 04:28:19;;;;;;;3.57;2.20;;;15.10;62.40;;;;;;2036194;28;20189;-67
2022/03/19 04:29:17;;;;;;;4.03;2.27;;;15.10;62.40;;;;;;2036143;28;20256;-66
2022/03/19 04:30:17;;;;;;;4.77;2.53;;;15.20;62.50;;;;;;2036159;28;20174;-67
2022/03/19 04:31:16;;;;;;;3.92;2.10;;;15.10;62.40;;;;;;2036239;28;20178;-66
2022/03/19 04:32:14;;;;;;;4.70;2.47;;;15.10;62.40;;;;;;2036239;28;20693;-67
2022/03/19 04:33:20;;;;;;;4.90;2.50;;;15.20;62.50;;;;;;2036195;28;20250;-67
2022/03/19 04:34:19;;;;;;;2.05;1.75;;;15.10;62.40;;;;;;2036414;28;20155;-67
2022/03/19 04:36:37;;;;;;;4.45;2.17;;;15.10;62.40;;;;;;2036291;28;20376;-67
2022/03/19 04:37:36;;;;;;;5.63;2.15;;;15.10;62.50;;;;;;2036301;28;20235;-67
2022/03/19 04:38:34;;;;;;;5.97;2.30;;;15.10;62.50;;;;;;2036254;28;20174;-67
2022/03/19 04:39:33;;;;;;;4.63;2.27;;;15.20;62.60;;;;;;2036288;28;20189;-67
2022/03/19 04:40:34;;;;;;;5.60;2.43;;;15.10;62.40;;;;;;2036231;28;20223;-67
2022/03/19 04:41:34;;;;;;;2.60;2.28;;;15.20;62.50;;;;;;2036293;28;20166;-67
2022/03/19 04:42:32;;;;;;;4.20;1.98;;;15.20;62.50;;;;;;2036303;28;20174;-68
2022/03/19 04:43:31;;;;;;;4.63;2.43;;;15.10;62.50;;;;;;2036124;28;20212;-67
2022/03/19 04:44:29;;;;;;;2.57;2.17;;;15.20;62.60;;;;;;2036190;28;20175;-68
2022/03/19 04:45:28;;;;;;;3.60;2.10;;;15.10;62.40;;;;;;2036237;28;20171;-67
2022/03/19 04:46:27;;;;;;;3.90;2.20;;;15.10;62.50;;;;;;2036157;28;20178;-67
2022/03/19 04:47:25;;;;;;;6.75;2.30;;;15.20;62.70;;;;;;2035570;28;20170;-67
2022/03/19 04:48:24;;;;;;;4.53;2.13;;;15.10;62.60;;;;;;2035779;28;20179;-67
2022/03/19 04:49:23;;;;;;;4.00;2.13;;;15.10;62.60;;;;;;2036025;28;20202;-68
2022/03/19 04:50:22;;;;;;;2.67;2.07;;;15.20;62.70;;;;;;2036306;28;20169;-66
2022/03/19 04:51:22;;;;;;;3.03;1.90;;;15.10;62.60;;;;;;2036356;28;20691;-66
2022/03/19 04:52:20;;;;;;;8.57;2.47;;;15.10;62.60;;;;;;2036051;28;20901;-67
2022/03/19 04:53:19;;;;;;;3.43;2.30;;;15.10;62.60;;;;;;2036092;28;20273;-68
2022/03/19 04:54:17;;;;;;;3.23;1.97;;;15.10;62.70;;;;;;2036214;28;20163;-66
2022/03/19 04:55:16;;;;;;;3.50;2.30;;;15.10;62.70;;;;;;2036221;28;20162;-67
2022/03/19 04:56:15;;;;;;;2.80;2.28;;;15.10;62.60;;;;;;2036223;28;20265;-67
2022/03/19 04:57:13;;;;;;;5.87;2.30;;;15.20;62.60;;;;;;2036151;28;20539;-67
2022/03/19 04:58:12;;;;;;;6.47;2.87;;;15.10;62.70;;;;;;2036186;28;20177;-66
2022/03/19 04:59:11;;;;;;;4.10;2.23;;;15.10;62.80;;;;;;2036136;28;20173;-67
2022/03/19 05:00:12;;;;;;;7.13;2.25;;;15.10;62.80;;;;;;2036287;28;20635;-67
2022/03/19 05:01:11;;;;;;;6.57;2.10;;;15.10;62.80;;;;;;2036246;28;20174;-67
2022/03/19 05:02:09;;;;;;;3.50;1.93;;;15.10;62.70;;;;;;2035452;28;20643;-67
2022/03/19 05:03:09;;;;;;;5.90;2.47;;;15.10;62.70;;;;;;2027406;28;20241;-67
2022/03/19 05:04:08;;;;;;;4.20;2.28;;;15.10;62.70;;;;;;2035230;28;20209;-67
2022/03/19 05:05:07;;;;;;;7.27;2.13;;;15.10;62.80;;;;;;2036127;28;20650;-67
2022/03/19 05:06:05;;;;;;;3.10;1.90;;;15.20;62.80;;;;;;2036055;28;20177;-67
2022/03/19 05:07:04;;;;;;;2.43;1.80;;;15.10;62.70;;;;;;2036784;28;20408;-67
2022/03/19 05:08:05;;;;;;;3.23;1.70;;;15.10;62.70;;;;;;2037529;28;20627;-66
2022/03/19 05:11:39;;;;;;;2.88;1.95;;;15.10;62.90;;;;;;2037574;28;20564;-66
2022/03/19 05:12:41;;;;;;;4.57;2.15;;;15.10;62.90;;;;;;2037683;28;20170;-66
2022/03/19 05:13:41;;;;;;;3.20;1.80;;;15.10;62.90;;;;;;2037500;28;20242;-66
2022/03/19 05:14:39;;;;;;;4.18;1.90;;;15.10;62.90;;;;;;2037378;28;20174;-66